createdAt,value
2017-06-05T00:02:16.020Z,50.60
2017-06-05T00:04:43.623Z,50.80
2017-06-05T00:07:11.137Z,51.20
2017-06-05T00:09:38.644Z,51.20
2017-06-05T00:12:06.612Z,51.10
2017-06-05T00:14:34.172Z,51.00
2017-06-05T00:17:01.683Z,51.10
2017-06-05T00:19:29.215Z,51.10
2017-06-05T00:21:56.740Z,51.30
2017-06-05T00:24:24.245Z,51.30
2017-06-05T00:26:51.879Z,51.00
2017-06-05T00:29:19.432Z,50.90
2017-06-05T00:31:46.985Z,50.90
2017-06-05T00:34:14.646Z,50.90
2017-06-05T00:36:42.213Z,51.00
2017-06-05T00:39:09.768Z,51.60
2017-06-05T00:41:37.331Z,52.30
2017-06-05T00:44:04.898Z,52.30
2017-06-05T00:46:32.551Z,52.40
2017-06-05T00:49:00.108Z,52.60
2017-06-05T00:51:27.672Z,53.00
2017-06-05T00:53:55.237Z,53.30
2017-06-05T00:56:22.797Z,54.00
2017-06-05T00:58:50.357Z,54.40
2017-06-05T01:01:18.125Z,54.40
2017-06-05T01:03:45.682Z,54.70
2017-06-05T01:06:13.196Z,54.90
2017-06-05T01:08:40.806Z,55.20
2017-06-05T01:11:08.312Z,56.10
2017-06-05T01:13:35.849Z,56.50
2017-06-05T01:16:03.375Z,57.90
2017-06-05T01:18:31.138Z,57.90
2017-06-05T01:20:58.712Z,58.00
2017-06-05T01:23:26.226Z,57.20
2017-06-05T01:25:54.840Z,56.70
2017-06-05T01:28:22.411Z,56.60
2017-06-05T01:30:49.977Z,57.00
2017-06-05T01:33:17.524Z,57.00
2017-06-05T01:35:45.028Z,57.10
2017-06-05T01:38:13.329Z,57.80
2017-06-05T01:40:40.859Z,57.80
2017-06-05T01:43:09.132Z,59.60
2017-06-05T01:45:37.444Z,59.70
2017-06-05T01:48:04.957Z,59.60
2017-06-05T01:50:32.562Z,59.70
2017-06-05T01:53:00.064Z,59.80
2017-06-05T01:55:27.887Z,59.80
2017-06-05T01:57:55.397Z,59.80
2017-06-05T02:00:22.904Z,59.80
2017-06-05T02:02:50.474Z,59.90
2017-06-05T02:05:18.023Z,60.50
2017-06-05T02:07:45.529Z,60.90
2017-06-05T02:10:13.248Z,61.60
2017-06-05T02:12:40.907Z,61.60
2017-06-05T02:15:08.421Z,61.40
2017-06-05T02:17:35.921Z,61.40
2017-06-05T02:20:03.457Z,61.20
2017-06-05T02:22:31.769Z,59.40
2017-06-05T02:24:59.324Z,59.30
2017-06-05T02:27:26.885Z,58.50
2017-06-05T02:29:54.446Z,58.00
2017-06-05T02:32:22.010Z,58.50
2017-06-05T02:34:49.569Z,59.00
2017-06-05T02:37:17.073Z,59.30
2017-06-05T02:39:44.685Z,59.60
2017-06-05T02:42:12.223Z,59.40
2017-06-05T02:44:39.808Z,60.30
2017-06-05T02:47:07.377Z,59.70
2017-06-05T02:49:34.930Z,59.50
2017-06-05T02:52:02.492Z,59.40
2017-06-05T02:54:30.046Z,59.50
2017-06-05T02:56:57.612Z,59.70
2017-06-05T02:59:25.117Z,60.20
2017-06-05T03:01:52.756Z,60.80
2017-06-05T03:04:20.293Z,61.20
2017-06-05T03:06:47.800Z,61.80
2017-06-05T03:09:15.355Z,61.80
2017-06-05T03:11:42.966Z,61.80
2017-06-05T03:14:10.529Z,61.80
2017-06-05T03:16:38.089Z,61.80
2017-06-05T03:19:05.653Z,61.80
2017-06-05T03:21:33.192Z,61.80
2017-06-05T03:24:00.769Z,61.80
2017-06-05T03:26:28.430Z,61.50
2017-06-05T03:28:55.937Z,61.00
2017-06-05T03:31:23.448Z,61.30
2017-06-05T03:33:51.214Z,61.80
2017-06-05T03:36:18.717Z,60.90
2017-06-05T03:38:46.432Z,60.10
2017-06-05T03:41:13.990Z,60.10
2017-06-05T03:43:41.558Z,60.00
2017-06-05T03:46:10.096Z,59.70
2017-06-05T03:48:37.605Z,59.60
2017-06-05T03:51:05.153Z,58.90
2017-06-05T03:53:32.718Z,58.20
2017-06-05T03:56:00.481Z,58.10
2017-06-05T03:58:27.984Z,57.50
2017-06-05T04:00:55.509Z,57.70
2017-06-05T04:03:23.050Z,58.40
2017-06-05T04:05:50.594Z,58.40
2017-06-05T04:08:18.183Z,58.40
2017-06-05T04:10:45.945Z,58.40
2017-06-05T04:13:13.501Z,57.80
2017-06-05T04:15:41.060Z,57.00
2017-06-05T04:18:08.832Z,56.80
2017-06-05T04:20:36.385Z,56.80
2017-06-05T04:23:03.950Z,55.60
2017-06-05T04:25:31.503Z,55.90
2017-06-05T04:27:59.065Z,54.90
2017-06-05T04:30:26.629Z,55.10
2017-06-05T04:32:54.175Z,55.20
2017-06-05T04:35:21.680Z,55.70
2017-06-05T04:37:49.185Z,55.50
2017-06-05T04:40:16.869Z,55.50
2017-06-05T04:42:44.739Z,55.60
2017-06-05T04:45:12.298Z,55.70
2017-06-05T04:47:39.858Z,55.70
2017-06-05T04:50:07.397Z,55.30
2017-06-05T04:52:34.901Z,54.00
2017-06-05T04:55:02.459Z,52.90
2017-06-05T04:57:29.988Z,52.10
2017-06-05T04:59:57.501Z,50.20
2017-06-05T05:02:25.043Z,49.20
2017-06-05T05:04:52.578Z,48.80
2017-06-05T05:07:20.129Z,47.70
2017-06-05T05:09:47.642Z,46.30
2017-06-05T05:12:15.969Z,44.90
2017-06-05T05:14:43.530Z,44.80
2017-06-05T05:17:11.042Z,43.90
2017-06-05T05:19:39.464Z,42.80
2017-06-05T05:22:06.977Z,42.70
2017-06-05T05:24:35.261Z,42.50
2017-06-05T05:27:03.681Z,42.00
2017-06-05T05:29:31.243Z,42.00
2017-06-05T05:31:58.765Z,41.50
2017-06-05T05:34:26.333Z,41.30
2017-06-05T05:36:53.926Z,40.30
2017-06-05T05:39:21.436Z,40.40
2017-06-05T05:41:49.753Z,39.10
2017-06-05T05:44:17.322Z,39.00
2017-06-05T05:46:44.877Z,37.80
2017-06-05T05:49:13.576Z,38.90
2017-06-05T05:51:41.126Z,38.00
2017-06-05T05:54:08.690Z,37.70
2017-06-05T05:56:36.249Z,37.30
2017-06-05T05:59:03.802Z,36.80
2017-06-05T06:01:31.370Z,36.20
2017-06-05T06:03:58.888Z,36.00
2017-06-05T06:06:26.486Z,35.60
2017-06-05T06:08:54.039Z,34.00
2017-06-05T06:11:21.565Z,33.60
2017-06-05T06:13:49.847Z,33.10
2017-06-05T06:16:18.257Z,32.90
2017-06-05T06:18:45.822Z,32.80
2017-06-05T06:21:14.253Z,32.40
2017-06-05T06:23:42.684Z,31.20
2017-06-05T06:26:10.197Z,31.20
2017-06-05T06:28:37.705Z,31.90
2017-06-05T06:31:05.257Z,31.30
2017-06-05T06:33:32.825Z,31.30
2017-06-05T06:36:00.376Z,32.40
2017-06-05T06:38:27.918Z,32.10
2017-06-05T06:40:55.625Z,32.10
2017-06-05T06:43:23.253Z,31.80
2017-06-05T06:45:50.928Z,31.10
2017-06-05T06:48:18.590Z,31.80
2017-06-05T06:50:46.150Z,31.10
2017-06-05T06:53:13.713Z,30.50
2017-06-05T06:55:41.270Z,29.40
2017-06-05T06:58:08.812Z,28.60
2017-06-05T07:00:36.391Z,29.20
2017-06-05T07:03:03.904Z,28.70
2017-06-05T07:05:31.612Z,28.40
2017-06-05T07:07:59.278Z,28.30
2017-06-05T07:10:26.839Z,28.10
2017-06-05T07:12:54.356Z,27.90
2017-06-05T07:15:22.774Z,28.30
2017-06-05T07:17:50.276Z,28.20
2017-06-05T07:20:17.896Z,27.70
2017-06-05T07:22:45.436Z,27.50
2017-06-05T07:25:13.017Z,27.60
2017-06-05T07:27:40.537Z,27.10
2017-06-05T07:30:09.169Z,27.90
2017-06-05T07:32:36.717Z,27.80
2017-06-05T07:35:04.229Z,26.20
2017-06-05T07:37:31.833Z,25.70
2017-06-05T07:39:59.396Z,25.20
2017-06-05T07:42:26.909Z,25.00
2017-06-05T07:44:54.616Z,24.70
2017-06-05T07:47:22.176Z,25.00
2017-06-05T07:49:49.747Z,24.70
2017-06-05T07:52:17.287Z,24.70
2017-06-05T07:54:44.856Z,25.20
2017-06-05T07:57:12.401Z,25.50
2017-06-05T07:59:39.908Z,25.60
2017-06-05T08:02:08.058Z,25.50
2017-06-05T08:04:35.610Z,25.10
2017-06-05T08:07:03.268Z,25.60
2017-06-05T08:09:30.813Z,25.60
2017-06-05T08:11:58.497Z,25.00
2017-06-05T08:14:26.005Z,24.20
2017-06-05T08:16:53.620Z,24.70
2017-06-05T08:19:21.182Z,24.70
2017-06-05T08:21:48.732Z,25.10
2017-06-05T08:24:16.293Z,24.70
2017-06-05T08:26:43.866Z,24.70
2017-06-05T08:29:11.418Z,24.20
2017-06-05T08:31:38.976Z,23.90
2017-06-05T08:34:06.536Z,24.60
2017-06-05T08:36:34.203Z,25.00
2017-06-05T08:39:01.741Z,24.60
2017-06-05T08:41:29.317Z,24.80
2017-06-05T08:43:56.901Z,25.00
2017-06-05T08:46:24.977Z,24.50
2017-06-05T08:48:52.487Z,23.70
2017-06-05T08:51:20.068Z,23.70
2017-06-05T08:53:47.848Z,23.40
2017-06-05T08:56:15.392Z,23.80
2017-06-05T08:58:42.953Z,24.70
2017-06-05T09:01:10.517Z,24.00
2017-06-05T09:03:38.072Z,24.20
2017-06-05T09:06:05.585Z,24.20
2017-06-05T09:08:33.188Z,24.00
2017-06-05T09:11:00.761Z,23.80
2017-06-05T09:13:28.324Z,23.70
2017-06-05T09:15:55.872Z,23.10
2017-06-05T09:18:23.432Z,24.00
2017-06-05T09:20:50.969Z,24.20
2017-06-05T09:23:19.583Z,25.70
2017-06-05T09:25:47.239Z,25.60
2017-06-05T09:28:15.200Z,25.00
2017-06-05T09:30:42.979Z,25.60
2017-06-05T09:33:11.666Z,25.10
2017-06-05T09:35:39.534Z,25.40
2017-06-05T09:38:07.195Z,25.30
2017-06-05T09:40:34.857Z,25.30
2017-06-05T09:43:02.827Z,24.90
2017-06-05T09:45:30.467Z,24.20
2017-06-05T09:47:58.185Z,24.50
2017-06-05T09:50:26.084Z,23.80
2017-06-05T09:52:53.817Z,23.20
2017-06-05T09:55:21.582Z,23.70
2017-06-05T09:57:49.348Z,23.90
2017-06-05T10:00:17.931Z,24.60
2017-06-05T10:02:45.695Z,23.00
2017-06-05T10:05:13.779Z,22.60
2017-06-05T10:07:41.634Z,22.30
2017-06-05T10:10:09.501Z,23.90
2017-06-05T10:12:37.266Z,22.10
2017-06-05T10:15:04.970Z,23.20
2017-06-05T10:17:33.357Z,24.10
2017-06-05T10:20:01.178Z,24.00
2017-06-05T10:22:28.814Z,23.70
2017-06-05T10:24:56.602Z,22.20
2017-06-05T10:27:24.457Z,22.20
2017-06-05T10:29:52.255Z,20.20
2017-06-05T10:32:19.908Z,21.00
2017-06-05T10:34:47.663Z,20.60
2017-06-05T10:37:15.426Z,19.20
2017-06-05T10:39:43.190Z,19.10
2017-06-05T10:42:10.867Z,19.50
2017-06-05T10:44:38.516Z,19.90
2017-06-05T10:47:06.293Z,19.80
2017-06-05T10:49:34.046Z,19.90
2017-06-05T10:52:01.809Z,21.30
2017-06-05T10:54:29.645Z,20.60
2017-06-05T10:56:57.197Z,20.70
2017-06-05T10:59:24.705Z,20.50
2017-06-05T11:01:52.322Z,21.40
2017-06-05T11:04:19.829Z,20.70
2017-06-05T11:06:47.437Z,20.40
2017-06-05T11:09:15.764Z,20.80
2017-06-05T11:11:43.344Z,20.80
2017-06-05T11:14:10.882Z,21.40
2017-06-05T11:16:39.394Z,20.80
2017-06-05T11:19:06.954Z,20.70
2017-06-05T11:21:34.461Z,21.00
2017-06-05T11:24:02.001Z,20.40
2017-06-05T11:26:29.513Z,21.10
2017-06-05T11:28:57.188Z,19.80
2017-06-05T11:31:24.748Z,19.50
2017-06-05T11:33:52.310Z,19.40
2017-06-05T11:36:19.821Z,20.00
2017-06-05T11:38:48.149Z,19.70
2017-06-05T11:41:15.657Z,19.70
2017-06-05T11:43:43.270Z,20.20
2017-06-05T11:46:10.925Z,20.70
2017-06-05T11:48:38.489Z,21.00
2017-06-05T11:51:06.049Z,21.50
2017-06-05T11:53:34.428Z,22.20
2017-06-05T11:56:01.985Z,20.70
2017-06-05T11:58:29.563Z,21.80
2017-06-05T12:00:57.879Z,20.30
2017-06-05T12:03:26.181Z,20.40
2017-06-05T12:05:53.750Z,20.40
2017-06-05T12:08:21.293Z,20.50
2017-06-05T12:10:48.872Z,20.10
2017-06-05T12:13:16.372Z,19.80
2017-06-05T12:15:43.990Z,18.90
2017-06-05T12:18:11.540Z,18.50
2017-06-05T12:20:39.105Z,18.90
2017-06-05T12:23:06.640Z,18.80
2017-06-05T12:25:35.049Z,18.80
2017-06-05T12:28:02.605Z,18.80
2017-06-05T12:30:30.980Z,19.70
2017-06-05T12:32:58.497Z,20.00
2017-06-05T12:35:26.005Z,19.50
2017-06-05T12:37:53.555Z,19.40
2017-06-05T12:40:21.067Z,19.00
2017-06-05T12:42:48.682Z,19.10
2017-06-05T12:45:16.245Z,18.30
2017-06-05T12:47:43.785Z,18.50
2017-06-05T12:50:11.345Z,18.40
2017-06-05T12:52:38.913Z,17.70
2017-06-05T12:55:06.465Z,17.90
2017-06-05T12:57:34.133Z,18.10
2017-06-05T13:00:01.796Z,16.90
2017-06-05T13:02:29.683Z,16.80
2017-06-05T13:04:58.004Z,16.90
2017-06-05T13:07:25.685Z,16.90
2017-06-05T13:09:53.353Z,17.00
2017-06-05T13:12:21.210Z,16.90
2017-06-05T13:14:48.851Z,16.20
2017-06-05T13:17:16.470Z,16.90
2017-06-05T13:19:44.140Z,16.80
2017-06-05T13:22:11.768Z,16.90
2017-06-05T13:24:39.542Z,15.90
2017-06-05T13:27:07.089Z,16.70
2017-06-05T13:29:34.660Z,16.20
2017-06-05T13:32:02.631Z,17.60
2017-06-05T13:34:30.162Z,17.40
2017-06-05T13:36:58.438Z,18.00
2017-06-05T13:39:26.927Z,17.40
2017-06-05T13:41:54.495Z,16.80
2017-06-05T13:44:22.008Z,16.90
2017-06-05T13:46:49.630Z,18.30
2017-06-05T13:49:17.284Z,16.60
2017-06-05T13:51:44.844Z,17.10
2017-06-05T13:54:12.408Z,16.20
2017-06-05T13:56:39.968Z,16.60
2017-06-05T13:59:07.523Z,17.00
2017-06-05T14:01:35.083Z,17.00
2017-06-05T14:04:02.683Z,17.10
2017-06-05T14:06:30.248Z,16.60
2017-06-05T14:08:57.824Z,15.30
2017-06-05T14:11:25.332Z,15.60
2017-06-05T14:13:53.058Z,15.40
2017-06-05T14:16:21.329Z,15.90
2017-06-05T14:18:49.636Z,16.20
2017-06-05T14:21:17.179Z,16.20
2017-06-05T14:23:45.115Z,17.10
2017-06-05T14:26:12.703Z,16.20
2017-06-05T14:28:40.329Z,16.00
2017-06-05T14:31:07.864Z,16.50
2017-06-05T14:33:35.627Z,16.90
2017-06-05T14:36:03.155Z,16.10
2017-06-05T14:38:31.568Z,15.10
2017-06-05T14:40:59.076Z,15.10
2017-06-05T14:43:26.575Z,14.80
2017-06-05T14:45:54.168Z,15.30
2017-06-05T14:48:21.671Z,14.50
2017-06-05T14:50:49.302Z,14.70
2017-06-05T14:53:16.829Z,14.30
2017-06-05T14:55:44.511Z,14.30
2017-06-05T14:58:12.090Z,14.30
2017-06-05T15:00:39.692Z,14.60
2017-06-05T15:03:08.067Z,14.70
2017-06-05T15:05:35.703Z,14.70
2017-06-05T15:08:03.208Z,14.40
2017-06-05T15:10:31.840Z,13.10
2017-06-05T15:12:59.453Z,13.10
2017-06-05T15:15:26.958Z,13.20
2017-06-05T15:17:54.527Z,13.50
2017-06-05T15:20:22.028Z,13.30
2017-06-05T15:22:50.312Z,13.10
2017-06-05T15:25:18.631Z,12.80
2017-06-05T15:27:46.196Z,12.70
2017-06-05T15:30:13.732Z,13.10
2017-06-05T15:32:41.450Z,13.40
2017-06-05T15:35:09.008Z,13.10
2017-06-05T15:37:36.529Z,13.40
2017-06-05T15:40:05.055Z,13.40
2017-06-05T15:42:32.617Z,13.20
2017-06-05T15:45:01.021Z,13.50
2017-06-05T15:47:28.611Z,13.50
2017-06-05T15:49:56.211Z,14.20
2017-06-05T15:52:24.627Z,13.90
2017-06-05T15:54:52.179Z,13.80
2017-06-05T15:57:19.740Z,13.90
2017-06-05T15:59:47.350Z,13.80
2017-06-05T16:02:14.966Z,13.80
2017-06-05T16:04:42.500Z,14.10
2017-06-05T16:07:10.817Z,13.10
2017-06-05T16:09:38.411Z,13.00
2017-06-05T16:12:06.313Z,13.30
2017-06-05T16:14:33.817Z,12.60
2017-06-05T16:17:01.371Z,11.80
2017-06-05T16:19:29.735Z,11.90
2017-06-05T16:21:57.235Z,12.10
2017-06-05T16:24:24.756Z,12.20
2017-06-05T16:26:52.292Z,12.30
2017-06-05T16:29:20.607Z,10.20
2017-06-05T16:31:48.138Z,10.80
2017-06-05T16:34:16.035Z,10.30
2017-06-05T16:36:43.629Z,10.90
2017-06-05T16:39:11.169Z,10.80
2017-06-05T16:41:38.792Z,10.50
2017-06-05T16:44:06.329Z,10.80
2017-06-05T16:46:33.889Z,11.50
2017-06-05T16:49:01.982Z,12.00
2017-06-05T16:51:29.545Z,11.30
2017-06-05T16:53:57.147Z,10.50
2017-06-05T16:56:24.965Z,10.70
2017-06-05T16:58:52.500Z,10.80
2017-06-05T17:01:20.171Z,10.90
2017-06-05T17:03:47.696Z,10.90
2017-06-05T17:06:16.137Z,11.20
2017-06-05T17:08:43.717Z,11.20
2017-06-05T17:11:12.024Z,9.40
2017-06-05T17:13:44.321Z,9.40
2017-06-05T17:16:12.076Z,10.40
2017-06-05T17:18:39.580Z,9.90
2017-06-05T17:21:07.126Z,10.70
2017-06-05T17:23:34.675Z,10.30
2017-06-05T17:26:02.972Z,10.00
2017-06-05T17:28:30.579Z,10.00
2017-06-05T17:30:58.257Z,10.10
2017-06-05T17:33:25.812Z,10.30
2017-06-05T17:35:54.119Z,11.30
2017-06-05T17:38:21.737Z,11.20
2017-06-05T17:40:49.340Z,11.40
2017-06-05T17:43:16.905Z,11.80
2017-06-05T17:45:44.464Z,12.20
2017-06-05T17:48:12.001Z,12.20
2017-06-05T17:50:39.653Z,12.10
2017-06-05T17:53:07.155Z,12.40
2017-06-05T17:55:34.927Z,12.00
2017-06-05T17:58:02.635Z,11.60
2017-06-05T18:00:30.148Z,11.30
2017-06-05T18:02:57.751Z,10.60
2017-06-05T18:05:25.284Z,10.10
2017-06-05T18:07:53.605Z,10.20
2017-06-05T18:10:21.157Z,10.20
2017-06-05T18:12:48.816Z,10.20
2017-06-05T18:15:16.321Z,10.50
2017-06-05T18:17:44.855Z,10.50
2017-06-05T18:20:12.516Z,10.60
2017-06-05T18:22:40.023Z,10.90
2017-06-05T18:25:07.546Z,11.30
2017-06-05T18:27:35.210Z,11.30
2017-06-05T18:30:02.767Z,12.00
2017-06-05T18:32:30.325Z,12.30
2017-06-05T18:34:57.987Z,11.90
2017-06-05T18:37:25.548Z,12.20
2017-06-05T18:39:53.065Z,12.50
2017-06-05T18:42:20.736Z,12.50
2017-06-05T18:44:48.245Z,12.50
2017-06-05T18:47:15.753Z,12.50
2017-06-05T18:49:44.166Z,12.90
2017-06-05T18:52:11.824Z,12.80
2017-06-05T18:54:39.600Z,12.70
2017-06-05T18:57:07.165Z,13.10
2017-06-05T18:59:34.825Z,13.80
2017-06-05T19:02:02.613Z,14.40
2017-06-05T19:04:30.151Z,15.10
2017-06-05T19:06:57.809Z,15.50
2017-06-05T19:09:25.364Z,16.10
2017-06-05T19:11:52.928Z,16.80
2017-06-05T19:14:20.457Z,17.40
2017-06-05T19:16:48.761Z,18.50
2017-06-05T19:19:16.428Z,18.50
2017-06-05T19:21:43.989Z,18.80
2017-06-05T19:24:11.521Z,19.30
2017-06-05T19:26:39.836Z,20.50
2017-06-05T19:29:07.389Z,20.40
2017-06-05T19:31:34.943Z,20.80
2017-06-05T19:34:02.484Z,21.20
2017-06-05T19:36:30.775Z,22.30
2017-06-05T19:38:58.300Z,22.80
2017-06-05T19:41:26.402Z,22.50
2017-06-05T19:43:53.948Z,22.90
2017-06-05T19:46:22.254Z,23.90
2017-06-05T19:48:49.816Z,23.80
2017-06-05T19:51:17.320Z,24.50
2017-06-05T19:53:44.947Z,25.00
2017-06-05T19:56:12.484Z,25.10
2017-06-05T19:58:40.027Z,25.80
2017-06-05T20:01:08.327Z,26.70
2017-06-05T20:03:35.891Z,26.60
2017-06-05T20:06:03.395Z,26.80
2017-06-05T20:08:30.896Z,27.20
2017-06-05T20:10:58.564Z,27.70
2017-06-05T20:13:26.236Z,27.80
2017-06-05T20:15:53.740Z,28.40
2017-06-05T20:18:21.452Z,28.70
2017-06-05T20:20:49.020Z,29.10
2017-06-05T20:23:16.575Z,29.30
2017-06-05T20:25:44.120Z,29.60
2017-06-05T20:28:11.624Z,30.00
2017-06-05T20:30:39.130Z,30.30
2017-06-05T20:33:06.712Z,30.60
2017-06-05T20:35:34.373Z,30.70
2017-06-05T20:38:01.942Z,30.90
2017-06-05T20:40:29.451Z,31.30
2017-06-05T20:42:57.817Z,31.90
2017-06-05T20:45:25.332Z,31.90
2017-06-05T20:47:52.891Z,32.10
2017-06-05T20:50:20.459Z,32.30
2017-06-05T20:52:48.007Z,32.70
2017-06-05T20:55:15.515Z,33.20
2017-06-05T20:57:43.128Z,33.70
2017-06-05T21:00:10.694Z,34.30
2017-06-05T21:02:38.240Z,34.30
2017-06-05T21:05:05.811Z,34.20
2017-06-05T21:07:33.364Z,34.20
2017-06-05T21:10:00.932Z,34.60
2017-06-05T21:12:28.440Z,35.20
2017-06-05T21:14:56.048Z,35.30
2017-06-05T21:17:23.603Z,35.90
2017-06-05T21:19:51.115Z,36.30
2017-06-05T21:22:18.733Z,36.60
2017-06-05T21:24:46.291Z,37.10
2017-06-05T21:27:13.848Z,37.40
2017-06-05T21:29:41.412Z,37.90
2017-06-05T21:32:08.968Z,37.80
2017-06-05T21:34:36.478Z,38.30
2017-06-05T21:37:04.795Z,38.70
2017-06-05T21:39:32.370Z,38.70
2017-06-05T21:41:59.876Z,38.10
2017-06-05T21:44:27.492Z,38.60
2017-06-05T21:46:54.995Z,38.50
2017-06-05T21:49:22.603Z,38.10
2017-06-05T21:51:50.159Z,37.80
2017-06-05T21:54:17.730Z,38.20
2017-06-05T21:56:45.287Z,37.50
2017-06-05T21:59:12.943Z,38.10
2017-06-05T22:01:40.506Z,37.70
2017-06-05T22:04:08.017Z,37.50
2017-06-05T22:06:35.571Z,37.50
2017-06-05T22:09:03.080Z,37.50
2017-06-05T22:11:30.643Z,37.50
2017-06-05T22:13:58.176Z,37.60
2017-06-05T22:16:26.456Z,37.40
2017-06-05T22:18:54.039Z,37.30
2017-06-05T22:21:21.586Z,37.10
2017-06-05T22:23:49.160Z,37.30
2017-06-05T22:26:16.729Z,37.50
2017-06-05T22:28:44.384Z,37.30
2017-06-05T22:31:11.950Z,37.40
2017-06-05T22:33:39.510Z,37.60
2017-06-05T22:36:07.025Z,37.60
2017-06-05T22:38:35.335Z,38.60
2017-06-05T22:41:02.896Z,37.90
2017-06-05T22:43:30.411Z,38.40
2017-06-05T22:45:57.947Z,38.40
2017-06-05T22:48:25.473Z,38.50
2017-06-05T22:50:52.986Z,38.90
2017-06-05T22:53:20.545Z,39.50
2017-06-05T22:55:48.057Z,39.90
2017-06-05T22:58:15.611Z,40.00
2017-06-05T23:00:43.278Z,40.10
2017-06-05T23:03:10.795Z,40.60
2017-06-05T23:05:39.067Z,41.10
2017-06-05T23:08:07.388Z,41.20
2017-06-05T23:10:34.895Z,41.30
2017-06-05T23:13:02.508Z,41.90
2017-06-05T23:15:30.015Z,41.90
2017-06-05T23:17:57.525Z,41.90
2017-06-05T23:20:25.191Z,42.60
2017-06-05T23:22:52.747Z,42.70
2017-06-05T23:25:20.312Z,42.70
2017-06-05T23:27:47.848Z,43.00
2017-06-05T23:30:15.359Z,43.10
2017-06-05T23:32:42.883Z,43.60
2017-06-05T23:35:10.444Z,43.70
2017-06-05T23:37:38.008Z,44.00
2017-06-05T23:40:05.572Z,44.40
2017-06-05T23:42:33.232Z,44.50
2017-06-05T23:45:00.804Z,45.40
2017-06-05T23:47:28.450Z,45.30
2017-06-05T23:49:55.995Z,45.30
2017-06-05T23:52:23.499Z,45.60
2017-06-05T23:54:51.047Z,45.80
2017-06-05T23:57:18.692Z,45.80
2017-06-05T23:59:46.248Z,45.70
